createdAt,value
2023-01-21T00:02:23.359Z,10.40
2023-01-21T00:05:24.479Z,16.42
2023-01-21T00:08:26.760Z,13.43
2023-01-21T00:11:27.759Z,12.73
2023-01-21T00:14:30.151Z,15.55
2023-01-21T00:17:35.502Z,10.98
2023-01-21T00:20:36.883Z,14.75
2023-01-21T00:23:37.737Z,12.43
2023-01-21T00:26:38.734Z,13.02
2023-01-21T00:29:39.481Z,11.10
2023-01-21T00:32:40.734Z,14.40
2023-01-21T00:35:42.389Z,16.33
2023-01-21T00:38:43.780Z,14.45
2023-01-21T00:41:44.596Z,13.98
2023-01-21T00:44:45.319Z,15.02
2023-01-21T00:47:47.374Z,12.15
2023-01-21T00:50:48.567Z,11.70
2023-01-21T00:53:49.764Z,13.52
2023-01-21T00:56:51.211Z,11.23
2023-01-21T00:59:53.653Z,13.50
2023-01-21T01:02:54.696Z,12.38
2023-01-21T01:05:55.751Z,15.63
2023-01-21T01:08:58.726Z,11.68
2023-01-21T01:12:00.196Z,12.50
2023-01-21T01:15:01.182Z,14.65
2023-01-21T01:18:02.293Z,13.52
2023-01-21T01:21:04.817Z,12.63
2023-01-21T01:24:06.546Z,15.35
2023-01-21T01:27:07.744Z,17.90
2023-01-21T01:30:09.832Z,16.23
2023-01-21T01:33:10.448Z,16.08
2023-01-21T01:36:16.101Z,17.48
2023-01-21T01:39:17.089Z,15.10
2023-01-21T01:42:18.341Z,14.32
2023-01-21T01:45:21.685Z,15.68
2023-01-21T01:48:32.758Z,15.23
2023-01-21T01:51:54.726Z,14.18
2023-01-21T01:55:00.666Z,14.10
2023-01-21T01:58:06.274Z,16.88
2023-01-21T02:01:07.421Z,13.82
2023-01-21T02:04:17.455Z,13.55
2023-01-21T02:07:24.718Z,13.95
2023-01-21T02:10:25.585Z,14.85
2023-01-21T02:13:30.767Z,20.00
2023-01-21T02:16:59.424Z,19.45
2023-01-21T02:20:40.587Z,14.30
2023-01-21T02:24:12.688Z,17.42
2023-01-21T02:27:32.949Z,18.23
2023-01-21T02:30:58.295Z,16.08
2023-01-21T02:34:26.879Z,15.27
2023-01-21T02:37:46.297Z,16.00
2023-01-21T02:40:57.133Z,17.00
2023-01-21T02:44:28.013Z,21.85
2023-01-21T02:47:51.180Z,18.92
2023-01-21T02:50:54.791Z,14.90
2023-01-21T02:53:55.872Z,21.95
2023-01-21T02:56:57.244Z,20.08
2023-01-21T03:00:01.833Z,20.50
2023-01-21T03:03:08.813Z,19.30
2023-01-21T03:06:37.182Z,20.65
2023-01-21T03:09:37.981Z,27.73
2023-01-21T03:12:56.036Z,36.63
2023-01-21T03:16:17.329Z,36.22
2023-01-21T03:19:23.450Z,34.38
2023-01-21T03:22:32.347Z,31.67
2023-01-21T03:25:35.326Z,34.40
2023-01-21T03:28:47.038Z,41.55
2023-01-21T03:31:55.111Z,43.70
2023-01-21T03:34:59.245Z,45.58
2023-01-21T03:38:24.796Z,58.72
2023-01-21T03:41:34.193Z,68.18
2023-01-21T03:44:36.039Z,72.40
2023-01-21T03:47:39.392Z,65.30
2023-01-21T03:50:52.109Z,70.50
2023-01-21T03:53:58.704Z,46.42
2023-01-21T03:56:59.736Z,57.75
2023-01-21T04:00:01.055Z,64.25
2023-01-21T04:03:02.298Z,63.35
2023-01-21T04:06:03.517Z,72.30
2023-01-21T04:09:06.574Z,76.30
2023-01-21T04:12:07.577Z,73.13
2023-01-21T04:15:09.614Z,87.80
2023-01-21T04:18:10.523Z,75.13
2023-01-21T04:21:11.439Z,70.20
2023-01-21T04:24:12.943Z,70.78
2023-01-21T04:27:13.836Z,74.93
2023-01-21T04:30:15.204Z,83.75
2023-01-21T04:33:17.590Z,73.85
2023-01-21T04:36:18.708Z,72.85
2023-01-21T04:39:19.664Z,74.03
2023-01-21T04:42:20.407Z,70.68
2023-01-21T04:45:21.696Z,72.10
2023-01-21T04:48:22.618Z,76.28
2023-01-21T04:51:23.363Z,63.58
2023-01-21T04:54:24.171Z,57.75
2023-01-21T04:57:24.869Z,51.47
2023-01-21T05:00:25.942Z,43.35
2023-01-21T05:03:27.965Z,50.30
2023-01-21T05:06:28.798Z,53.25
2023-01-21T05:09:29.644Z,52.47
2023-01-21T05:12:30.780Z,57.50
2023-01-21T05:15:32.299Z,63.25
2023-01-21T05:18:33.257Z,64.43
2023-01-21T05:21:34.013Z,64.43
2023-01-21T05:24:34.900Z,66.40
2023-01-21T05:27:35.799Z,75.20
2023-01-21T05:30:39.910Z,71.63
2023-01-21T05:33:44.099Z,76.93
2023-01-21T05:36:45.379Z,78.10
2023-01-21T05:39:46.095Z,74.13
2023-01-21T05:42:47.440Z,71.13
2023-01-21T05:45:48.421Z,75.50
2023-01-21T05:48:49.856Z,75.57
2023-01-21T05:51:50.446Z,77.32
2023-01-21T05:55:01.305Z,83.15
2023-01-21T05:58:03.665Z,78.78
2023-01-21T06:01:04.581Z,81.75
2023-01-21T06:04:05.653Z,81.15
2023-01-21T06:07:06.756Z,88.57
2023-01-21T06:10:08.598Z,83.90
2023-01-21T06:13:12.988Z,85.78
2023-01-21T06:16:13.996Z,77.65
2023-01-21T06:19:14.909Z,72.88
2023-01-21T06:22:16.922Z,74.32
2023-01-21T06:25:18.188Z,82.05
2023-01-21T06:28:18.980Z,81.55
2023-01-21T06:31:19.973Z,88.93
2023-01-21T06:34:21.108Z,97.32
2023-01-21T06:37:21.847Z,84.43
2023-01-21T06:40:22.677Z,89.82
2023-01-21T06:43:23.496Z,94.10
2023-01-21T06:46:24.940Z,85.53
2023-01-21T06:49:26.148Z,83.20
2023-01-21T06:52:27.266Z,85.10
2023-01-21T06:55:28.455Z,80.57
2023-01-21T06:58:29.307Z,78.07
2023-01-21T07:01:32.559Z,79.82
2023-01-21T07:04:34.085Z,79.88
2023-01-21T07:07:34.754Z,79.32
2023-01-21T07:10:35.632Z,83.35
2023-01-21T07:13:36.514Z,84.03
2023-01-21T07:16:37.959Z,79.40
2023-01-21T07:19:38.858Z,77.30
2023-01-21T07:22:40.083Z,83.28
2023-01-21T07:25:41.264Z,72.55
2023-01-21T07:28:41.949Z,76.22
2023-01-21T07:31:44.268Z,77.22
2023-01-21T07:34:45.298Z,74.07
2023-01-21T07:37:46.422Z,71.32
2023-01-21T07:40:51.451Z,68.32
2023-01-21T07:43:52.339Z,71.43
2023-01-21T07:46:53.383Z,66.55
2023-01-21T07:49:54.346Z,72.05
2023-01-21T07:52:55.396Z,70.50
2023-01-21T07:55:56.223Z,68.07
2023-01-21T07:58:57.468Z,76.15
2023-01-21T08:01:58.227Z,63.08
2023-01-21T08:04:59.710Z,69.50
2023-01-21T08:08:00.540Z,60.95
2023-01-21T08:11:01.475Z,65.10
2023-01-21T08:14:02.511Z,60.80
2023-01-21T08:17:03.087Z,61.30
2023-01-21T08:20:04.814Z,58.40
2023-01-21T08:23:05.451Z,60.38
2023-01-21T08:26:07.737Z,61.35
2023-01-21T08:29:08.788Z,63.72
2023-01-21T08:32:09.940Z,63.40
2023-01-21T08:35:10.884Z,67.68
2023-01-21T08:38:11.600Z,60.40
2023-01-21T08:41:13.049Z,70.13
2023-01-21T08:44:13.765Z,66.10
2023-01-21T08:47:14.420Z,64.28
2023-01-21T08:50:16.116Z,65.15
2023-01-21T08:53:17.196Z,61.03
2023-01-21T08:56:19.437Z,52.17
2023-01-21T08:59:28.102Z,63.35
2023-01-21T09:02:29.165Z,55.58
2023-01-21T09:05:30.260Z,55.55
2023-01-21T09:08:32.307Z,51.85
2023-01-21T09:11:34.170Z,48.10
2023-01-21T09:14:35.216Z,47.20
2023-01-21T09:17:38.516Z,47.90
2023-01-21T09:20:40.435Z,47.60
2023-01-21T09:23:42.005Z,55.67
2023-01-21T09:26:44.239Z,50.95
2023-01-21T09:29:45.674Z,46.70
2023-01-21T09:32:46.915Z,45.35
2023-01-21T09:35:57.721Z,47.63
2023-01-21T09:38:58.924Z,46.53
2023-01-21T09:41:59.840Z,43.97
2023-01-21T09:45:02.947Z,44.13
2023-01-21T09:48:07.816Z,45.28
2023-01-21T09:51:22.542Z,43.00
2023-01-21T09:54:34.102Z,41.63
2023-01-21T09:58:19.694Z,37.40
2023-01-21T10:01:32.574Z,38.35
2023-01-21T10:04:55.500Z,31.23
2023-01-21T10:08:54.234Z,26.05
2023-01-21T10:12:13.991Z,33.38
2023-01-21T10:15:41.445Z,30.50
2023-01-21T10:21:55.954Z,25.63
2023-01-21T10:25:15.685Z,24.30
2023-01-21T10:28:24.203Z,33.70
2023-01-21T10:31:29.034Z,22.50
2023-01-21T10:34:32.548Z,23.42
2023-01-21T10:37:48.263Z,30.23
2023-01-21T10:41:14.048Z,29.75
2023-01-21T10:44:39.130Z,26.48
2023-01-21T10:48:12.323Z,25.15
2023-01-21T10:51:35.267Z,24.00
2023-01-21T10:54:50.237Z,22.40
2023-01-21T10:58:11.551Z,20.75
2023-01-21T11:01:27.853Z,20.02
2023-01-21T11:04:29.293Z,25.55
2023-01-21T11:07:42.402Z,24.98
2023-01-21T11:10:45.551Z,24.05
2023-01-21T11:13:46.564Z,24.60
2023-01-21T11:16:50.557Z,24.02
2023-01-21T11:20:00.865Z,28.75
2023-01-21T11:23:06.413Z,24.67
2023-01-21T11:26:23.832Z,30.42
2023-01-21T11:29:26.861Z,26.20
2023-01-21T11:32:30.885Z,24.38
2023-01-21T11:35:31.931Z,22.35
2023-01-21T11:38:35.770Z,23.88
2023-01-21T11:41:37.194Z,25.42
2023-01-21T11:44:53.978Z,26.77
2023-01-21T11:47:56.103Z,24.33
2023-01-21T11:51:07.591Z,29.42
2023-01-21T11:54:13.432Z,31.65
2023-01-21T11:57:25.925Z,23.15
2023-01-21T12:00:28.032Z,38.53
2023-01-21T12:03:53.930Z,31.23
2023-01-21T12:07:00.549Z,28.85
2023-01-21T12:10:28.148Z,22.83
2023-01-21T12:13:50.911Z,30.48
2023-01-21T12:17:23.693Z,27.80
2023-01-21T12:21:09.077Z,36.08
2023-01-21T12:24:50.072Z,26.65
2023-01-21T12:28:06.310Z,32.03
2023-01-21T12:31:25.208Z,31.70
2023-01-21T12:34:45.410Z,36.00
2023-01-21T12:38:00.667Z,32.63
2023-01-21T12:41:24.726Z,31.63
2023-01-21T12:44:50.973Z,34.38
2023-01-21T12:48:03.467Z,26.98
2023-01-21T12:51:41.276Z,34.85
2023-01-21T12:55:16.390Z,30.10
2023-01-21T12:58:25.358Z,35.58
2023-01-21T13:02:12.181Z,30.48
2023-01-21T13:05:36.546Z,32.50
2023-01-21T13:08:49.567Z,34.35
2023-01-21T13:11:58.567Z,26.83
2023-01-21T13:15:22.255Z,32.60
2023-01-21T13:18:32.699Z,26.65
2023-01-21T13:22:06.713Z,20.27
2023-01-21T13:25:39.897Z,24.52
2023-01-21T13:29:25.487Z,21.65
2023-01-21T13:32:35.636Z,22.38
2023-01-21T13:36:00.746Z,25.45
2023-01-21T13:39:24.449Z,22.98
2023-01-21T13:42:31.038Z,23.73
2023-01-21T13:46:20.740Z,18.67
2023-01-21T13:50:15.563Z,20.60
2023-01-21T13:53:56.427Z,18.98
2023-01-21T13:58:02.376Z,19.25
2023-01-21T14:01:14.711Z,17.05
2023-01-21T14:04:53.911Z,17.85
2023-01-21T14:08:10.077Z,17.88
2023-01-21T14:11:28.249Z,20.45
2023-01-21T14:15:14.956Z,23.15
2023-01-21T14:21:51.278Z,21.63
2023-01-21T14:25:28.680Z,25.33
2023-01-21T14:28:41.560Z,22.63
2023-01-21T14:31:56.373Z,21.90
2023-01-21T14:35:06.405Z,23.55
2023-01-21T14:38:50.887Z,21.27
2023-01-21T14:42:05.009Z,21.17
2023-01-21T14:45:08.503Z,23.02
2023-01-21T14:48:40.424Z,29.20
2023-01-21T14:51:50.033Z,23.45
2023-01-21T14:54:50.784Z,24.52
2023-01-21T14:57:53.466Z,27.42
2023-01-21T15:00:54.345Z,24.17
2023-01-21T15:03:58.562Z,23.90
2023-01-21T15:07:13.870Z,24.70
2023-01-21T15:10:35.422Z,24.42
2023-01-21T15:13:39.950Z,22.95
2023-01-21T15:16:43.705Z,18.48
2023-01-21T15:19:44.920Z,18.52
2023-01-21T15:22:48.982Z,22.42
2023-01-21T15:26:08.387Z,21.38
2023-01-21T15:29:33.731Z,20.85
2023-01-21T15:32:35.406Z,19.88
2023-01-21T15:35:41.730Z,18.63
2023-01-21T15:38:42.972Z,25.80
2023-01-21T15:41:57.912Z,21.92
2023-01-21T15:45:23.858Z,26.10
2023-01-21T15:48:54.913Z,22.80
2023-01-21T15:52:29.243Z,22.83
2023-01-21T15:56:13.947Z,22.30
2023-01-21T15:59:44.571Z,22.55
2023-01-21T16:02:59.264Z,24.88
2023-01-21T16:06:53.693Z,26.02
2023-01-21T16:10:20.408Z,29.42
2023-01-21T16:13:53.420Z,23.48
2023-01-21T16:17:41.165Z,28.25
2023-01-21T16:20:47.386Z,27.40
2023-01-21T16:23:53.160Z,26.65
2023-01-21T16:26:54.238Z,23.05
2023-01-21T16:30:01.197Z,26.58
2023-01-21T16:33:15.971Z,23.92
2023-01-21T16:36:17.091Z,23.38
2023-01-21T16:39:20.079Z,26.52
2023-01-21T16:42:31.181Z,27.02
2023-01-21T16:45:32.322Z,22.73
2023-01-21T16:48:34.671Z,23.98
2023-01-21T16:51:40.077Z,23.33
2023-01-21T16:54:53.361Z,32.17
2023-01-21T16:57:57.923Z,25.02
2023-01-21T17:01:08.888Z,20.48
2023-01-21T17:04:09.740Z,25.25
2023-01-21T17:07:25.648Z,25.08
2023-01-21T17:10:35.524Z,23.33
2023-01-21T17:13:43.724Z,23.80
2023-01-21T17:16:45.297Z,22.55
2023-01-21T17:19:46.211Z,20.40
2023-01-21T17:22:47.197Z,21.27
2023-01-21T17:26:21.721Z,21.67
2023-01-21T17:29:29.448Z,20.08
2023-01-21T17:32:34.423Z,24.33
2023-01-21T17:35:35.759Z,19.60
2023-01-21T17:38:44.197Z,19.98
2023-01-21T17:41:46.678Z,16.63
2023-01-21T17:44:54.713Z,21.35
2023-01-21T17:48:14.589Z,24.30
2023-01-21T17:51:28.663Z,20.17
2023-01-21T17:54:29.998Z,20.92
2023-01-21T17:57:35.869Z,26.27
2023-01-21T18:00:39.352Z,52.55
2023-01-21T18:03:40.403Z,47.83
2023-01-21T18:06:41.279Z,25.60
2023-01-21T18:09:43.172Z,30.13
2023-01-21T18:12:44.228Z,18.98
2023-01-21T18:15:46.635Z,18.55
2023-01-21T18:18:49.537Z,15.60
2023-01-21T18:21:50.310Z,16.73
2023-01-21T18:24:51.224Z,14.30
2023-01-21T18:27:55.020Z,15.43
2023-01-21T18:30:57.802Z,22.95
2023-01-21T18:33:58.660Z,22.83
2023-01-21T18:36:59.604Z,18.45
2023-01-21T18:40:00.493Z,15.00
2023-01-21T18:43:01.632Z,25.27
2023-01-21T18:46:02.686Z,38.88
2023-01-21T18:49:05.919Z,35.38
2023-01-21T18:52:09.472Z,30.58
2023-01-21T18:55:13.295Z,26.17
2023-01-21T18:58:14.796Z,10.40
2023-01-21T19:01:23.029Z,13.57
2023-01-21T19:04:24.773Z,12.07
2023-01-21T19:07:26.175Z,10.32
2023-01-21T19:10:27.446Z,9.90
2023-01-21T19:13:28.285Z,11.00
2023-01-21T19:16:29.118Z,68.03
2023-01-21T19:19:30.592Z,15.85
2023-01-21T19:22:31.769Z,27.52
2023-01-21T19:25:32.693Z,30.60
2023-01-21T19:28:34.817Z,15.20
2023-01-21T19:31:35.830Z,9.07
2023-01-21T19:34:36.860Z,9.18
2023-01-21T19:37:40.328Z,11.85
2023-01-21T19:40:41.677Z,10.70
2023-01-21T19:43:42.707Z,10.68
2023-01-21T19:46:43.972Z,10.20
2023-01-21T19:49:46.069Z,12.55
2023-01-21T19:52:50.433Z,9.00
2023-01-21T19:55:51.577Z,10.43
2023-01-21T19:58:52.409Z,11.52
2023-01-21T20:01:53.401Z,11.93
2023-01-21T20:04:54.113Z,11.65
2023-01-21T20:07:55.852Z,11.35
2023-01-21T20:10:56.993Z,12.02
2023-01-21T20:13:58.139Z,12.50
2023-01-21T20:16:59.027Z,10.10
2023-01-21T20:20:00.119Z,9.85
2023-01-21T20:23:01.964Z,10.48
2023-01-21T20:26:09.362Z,11.75
2023-01-21T20:29:14.129Z,10.75
2023-01-21T20:32:15.056Z,12.23
2023-01-21T20:35:18.677Z,12.13
2023-01-21T20:38:34.311Z,12.52
2023-01-21T20:41:35.311Z,11.95
2023-01-21T20:44:36.563Z,11.02
2023-01-21T20:47:38.516Z,12.32
2023-01-21T20:50:39.966Z,12.02
2023-01-21T20:53:40.962Z,11.13
2023-01-21T20:56:42.080Z,9.43
2023-01-21T20:59:42.859Z,10.63
2023-01-21T21:02:44.425Z,10.32
2023-01-21T21:05:49.431Z,11.35
2023-01-21T21:08:51.168Z,10.40
2023-01-21T21:11:51.955Z,12.07
2023-01-21T21:14:52.765Z,10.98
2023-01-21T21:17:53.581Z,9.20
2023-01-21T21:20:54.278Z,11.60
2023-01-21T21:23:55.075Z,14.40
2023-01-21T21:26:56.267Z,9.70
2023-01-21T21:29:59.391Z,9.98
2023-01-21T21:33:01.395Z,12.57
2023-01-21T21:36:02.432Z,10.85
2023-01-21T21:39:03.957Z,13.52
2023-01-21T21:42:23.406Z,11.30
2023-01-21T21:45:24.607Z,13.10
2023-01-21T21:48:45.160Z,13.43
2023-01-21T21:51:46.337Z,10.95
2023-01-21T21:54:47.167Z,13.25
2023-01-21T21:57:48.080Z,12.93
2023-01-21T22:00:54.178Z,11.50
2023-01-21T22:03:55.379Z,14.50
2023-01-21T22:06:56.320Z,10.32
2023-01-21T22:09:57.653Z,14.63
2023-01-21T22:12:58.459Z,12.95
2023-01-21T22:16:01.225Z,10.65
2023-01-21T22:19:02.427Z,17.10
2023-01-21T22:22:03.181Z,13.45
2023-01-21T22:25:04.314Z,12.65
2023-01-21T22:28:05.245Z,12.00
2023-01-21T22:31:12.252Z,11.15
2023-01-21T22:34:13.391Z,8.23
2023-01-21T22:37:14.583Z,10.70
2023-01-21T22:40:15.894Z,12.88
2023-01-21T22:43:21.003Z,12.95
2023-01-21T22:46:30.249Z,14.00
2023-01-21T22:49:31.340Z,15.18
2023-01-21T22:52:32.236Z,14.05
2023-01-21T22:55:33.229Z,12.25
2023-01-21T22:58:35.679Z,12.88
2023-01-21T23:01:36.751Z,13.57
2023-01-21T23:04:38.345Z,11.00
2023-01-21T23:07:39.262Z,13.88
2023-01-21T23:10:42.682Z,12.07
2023-01-21T23:13:44.646Z,11.55
2023-01-21T23:16:46.922Z,11.15
2023-01-21T23:19:47.640Z,12.20
2023-01-21T23:22:48.506Z,10.95
2023-01-21T23:25:49.720Z,12.85
2023-01-21T23:28:55.945Z,14.93
2023-01-21T23:31:58.231Z,10.52
2023-01-21T23:34:59.204Z,11.52
2023-01-21T23:38:00.937Z,11.27
2023-01-21T23:41:09.229Z,12.32
2023-01-21T23:44:10.889Z,13.05
2023-01-21T23:47:11.741Z,13.32
2023-01-21T23:50:13.995Z,15.63
2023-01-21T23:53:15.263Z,9.63
2023-01-21T23:56:23.871Z,14.95
2023-01-21T23:59:25.377Z,9.90
